sensor_id;sensor_type;location;lat;lon;timestamp;P1;durP1;ratioP1;P2;durP2;ratioP2
20713;SDS011;10518;50.742;4.226;2024-01-10T00:01:39;11.87;;;4.20;;
20713;SDS011;10518;50.742;4.226;2024-01-10T00:04:05;8.93;;;3.63;;
20713;SDS011;10518;50.742;4.226;2024-01-10T00:06:30;6.83;;;3.80;;
20713;SDS011;10518;50.742;4.226;2024-01-10T00:08:56;11.57;;;3.67;;
20713;SDS011;10518;50.742;4.226;2024-01-10T00:11:22;9.43;;;3.47;;
20713;SDS011;10518;50.742;4.226;2024-01-10T00:13:47;8.90;;;3.77;;
20713;SDS011;10518;50.742;4.226;2024-01-10T00:16:13;9.10;;;3.67;;
20713;SDS011;10518;50.742;4.226;2024-01-10T00:18:39;8.10;;;3.50;;
20713;SDS011;10518;50.742;4.226;2024-01-10T00:21:05;11.37;;;4.10;;
20713;SDS011;10518;50.742;4.226;2024-01-10T00:23:35;7.37;;;3.57;;
20713;SDS011;10518;50.742;4.226;2024-01-10T00:26:00;11.67;;;4.00;;
20713;SDS011;10518;50.742;4.226;2024-01-10T00:28:26;7.33;;;4.10;;
20713;SDS011;10518;50.742;4.226;2024-01-10T00:30:51;9.23;;;3.60;;
20713;SDS011;10518;50.742;4.226;2024-01-10T00:33:17;7.00;;;3.63;;
20713;SDS011;10518;50.742;4.226;2024-01-10T00:35:43;8.07;;;3.60;;
20713;SDS011;10518;50.742;4.226;2024-01-10T00:38:09;7.03;;;4.23;;
20713;SDS011;10518;50.742;4.226;2024-01-10T00:40:34;11.93;;;4.47;;
20713;SDS011;10518;50.742;4.226;2024-01-10T00:43:01;10.70;;;4.57;;
20713;SDS011;10518;50.742;4.226;2024-01-10T00:45:27;10.30;;;4.13;;
20713;SDS011;10518;50.742;4.226;2024-01-10T00:47:52;10.97;;;4.57;;
20713;SDS011;10518;50.742;4.226;2024-01-10T00:50:18;11.27;;;4.17;;
20713;SDS011;10518;50.742;4.226;2024-01-10T00:52:44;6.93;;;3.20;;
20713;SDS011;10518;50.742;4.226;2024-01-10T00:55:10;7.23;;;3.87;;
20713;SDS011;10518;50.742;4.226;2024-01-10T00:57:36;12.93;;;4.53;;
20713;SDS011;10518;50.742;4.226;2024-01-10T01:00:03;8.60;;;4.20;;
20713;SDS011;10518;50.742;4.226;2024-01-10T01:02:30;9.37;;;3.70;;
20713;SDS011;10518;50.742;4.226;2024-01-10T01:04:56;8.77;;;4.27;;
20713;SDS011;10518;50.742;4.226;2024-01-10T01:07:22;8.87;;;3.73;;
20713;SDS011;10518;50.742;4.226;2024-01-10T01:09:47;11.77;;;3.67;;
20713;SDS011;10518;50.742;4.226;2024-01-10T01:12:13;8.50;;;4.17;;
20713;SDS011;10518;50.742;4.226;2024-01-10T01:14:39;8.83;;;4.10;;
20713;SDS011;10518;50.742;4.226;2024-01-10T01:17:04;9.13;;;3.63;;
20713;SDS011;10518;50.742;4.226;2024-01-10T01:19:30;7.97;;;3.80;;
20713;SDS011;10518;50.742;4.226;2024-01-10T01:21:56;8.50;;;4.03;;
20713;SDS011;10518;50.742;4.226;2024-01-10T01:24:21;10.80;;;4.53;;
20713;SDS011;10518;50.742;4.226;2024-01-10T01:26:47;5.20;;;2.97;;
20713;SDS011;10518;50.742;4.226;2024-01-10T01:29:12;10.67;;;4.13;;
20713;SDS011;10518;50.742;4.226;2024-01-10T01:31:38;8.87;;;4.23;;
20713;SDS011;10518;50.742;4.226;2024-01-10T01:34:04;9.63;;;4.77;;
20713;SDS011;10518;50.742;4.226;2024-01-10T01:36:29;8.40;;;3.77;;
20713;SDS011;10518;50.742;4.226;2024-01-10T01:38:55;8.07;;;4.27;;
20713;SDS011;10518;50.742;4.226;2024-01-10T01:41:20;8.87;;;3.97;;
20713;SDS011;10518;50.742;4.226;2024-01-10T01:43:46;6.67;;;3.83;;
20713;SDS011;10518;50.742;4.226;2024-01-10T01:46:12;10.37;;;4.33;;
20713;SDS011;10518;50.742;4.226;2024-01-10T01:48:38;13.80;;;5.20;;
20713;SDS011;10518;50.742;4.226;2024-01-10T01:51:06;8.33;;;4.03;;
20713;SDS011;10518;50.742;4.226;2024-01-10T01:53:37;13.17;;;4.37;;
20713;SDS011;10518;50.742;4.226;2024-01-10T01:56:07;9.97;;;4.07;;
20713;SDS011;10518;50.742;4.226;2024-01-10T01:58:33;7.67;;;3.40;;
20713;SDS011;10518;50.742;4.226;2024-01-10T02:01:01;7.47;;;3.73;;
20713;SDS011;10518;50.742;4.226;2024-01-10T02:03:28;8.13;;;3.57;;
20713;SDS011;10518;50.742;4.226;2024-01-10T02:05:54;12.50;;;4.80;;
20713;SDS011;10518;50.742;4.226;2024-01-10T02:08:20;10.47;;;4.73;;
20713;SDS011;10518;50.742;4.226;2024-01-10T02:10:45;10.80;;;4.37;;
20713;SDS011;10518;50.742;4.226;2024-01-10T02:13:11;13.07;;;4.40;;
20713;SDS011;10518;50.742;4.226;2024-01-10T02:15:37;11.73;;;4.73;;
20713;SDS011;10518;50.742;4.226;2024-01-10T02:18:03;7.33;;;3.77;;
20713;SDS011;10518;50.742;4.226;2024-01-10T02:20:30;11.60;;;4.87;;
20713;SDS011;10518;50.742;4.226;2024-01-10T02:22:56;9.33;;;4.13;;
20713;SDS011;10518;50.742;4.226;2024-01-10T02:25:22;9.43;;;4.17;;
20713;SDS011;10518;50.742;4.226;2024-01-10T02:27:48;8.80;;;4.63;;
20713;SDS011;10518;50.742;4.226;2024-01-10T02:30:13;12.67;;;4.73;;
20713;SDS011;10518;50.742;4.226;2024-01-10T02:32:39;9.07;;;3.97;;
20713;SDS011;10518;50.742;4.226;2024-01-10T02:35:05;11.67;;;4.47;;
20713;SDS011;10518;50.742;4.226;2024-01-10T02:37:31;11.07;;;5.17;;
20713;SDS011;10518;50.742;4.226;2024-01-10T02:39:56;10.00;;;3.93;;
20713;SDS011;10518;50.742;4.226;2024-01-10T02:42:22;7.53;;;3.83;;
20713;SDS011;10518;50.742;4.226;2024-01-10T02:44:48;12.87;;;4.53;;
20713;SDS011;10518;50.742;4.226;2024-01-10T02:47:13;6.90;;;3.67;;
20713;SDS011;10518;50.742;4.226;2024-01-10T02:49:39;9.87;;;4.70;;
20713;SDS011;10518;50.742;4.226;2024-01-10T02:52:05;5.80;;;3.00;;
20713;SDS011;10518;50.742;4.226;2024-01-10T02:54:30;11.20;;;4.50;;
20713;SDS011;10518;50.742;4.226;2024-01-10T02:56:56;7.17;;;3.63;;
20713;SDS011;10518;50.742;4.226;2024-01-10T02:59:22;6.93;;;3.73;;
20713;SDS011;10518;50.742;4.226;2024-01-10T03:01:47;7.77;;;4.40;;
20713;SDS011;10518;50.742;4.226;2024-01-10T03:04:13;9.97;;;5.20;;
20713;SDS011;10518;50.742;4.226;2024-01-10T03:06:39;12.63;;;4.47;;
20713;SDS011;10518;50.742;4.226;2024-01-10T03:09:04;8.50;;;4.33;;
20713;SDS011;10518;50.742;4.226;2024-01-10T03:11:30;7.63;;;4.43;;
20713;SDS011;10518;50.742;4.226;2024-01-10T03:14:03;10.47;;;4.23;;
20713;SDS011;10518;50.742;4.226;2024-01-10T03:16:32;9.63;;;4.03;;
20713;SDS011;10518;50.742;4.226;2024-01-10T03:18:57;7.07;;;3.67;;
20713;SDS011;10518;50.742;4.226;2024-01-10T03:21:23;7.57;;;3.87;;
20713;SDS011;10518;50.742;4.226;2024-01-10T03:23:51;7.23;;;3.70;;
20713;SDS011;10518;50.742;4.226;2024-01-10T03:26:17;10.50;;;4.87;;
20713;SDS011;10518;50.742;4.226;2024-01-10T03:28:43;8.43;;;4.73;;
20713;SDS011;10518;50.742;4.226;2024-01-10T03:31:10;11.37;;;4.43;;
20713;SDS011;10518;50.742;4.226;2024-01-10T03:33:36;15.57;;;4.23;;
20713;SDS011;10518;50.742;4.226;2024-01-10T03:36:02;9.57;;;4.30;;
20713;SDS011;10518;50.742;4.226;2024-01-10T03:38:27;8.63;;;4.20;;
20713;SDS011;10518;50.742;4.226;2024-01-10T03:40:53;7.10;;;3.63;;
20713;SDS011;10518;50.742;4.226;2024-01-10T03:43:19;6.77;;;4.03;;
20713;SDS011;10518;50.742;4.226;2024-01-10T03:45:44;11.57;;;4.90;;
20713;SDS011;10518;50.742;4.226;2024-01-10T03:48:10;11.33;;;4.17;;
20713;SDS011;10518;50.742;4.226;2024-01-10T03:50:35;8.10;;;4.20;;
20713;SDS011;10518;50.742;4.226;2024-01-10T03:53:01;10.80;;;3.77;;
20713;SDS011;10518;50.742;4.226;2024-01-10T03:55:26;8.07;;;3.83;;
20713;SDS011;10518;50.742;4.226;2024-01-10T03:57:52;6.70;;;2.77;;
20713;SDS011;10518;50.742;4.226;2024-01-10T04:00:18;10.53;;;4.50;;
20713;SDS011;10518;50.742;4.226;2024-01-10T04:02:43;7.63;;;3.80;;
20713;SDS011;10518;50.742;4.226;2024-01-10T04:05:09;11.17;;;4.23;;
20713;SDS011;10518;50.742;4.226;2024-01-10T04:07:36;8.00;;;4.10;;
20713;SDS011;10518;50.742;4.226;2024-01-10T04:10:06;6.27;;;2.73;;
20713;SDS011;10518;50.742;4.226;2024-01-10T04:12:35;10.07;;;3.63;;
20713;SDS011;10518;50.742;4.226;2024-01-10T04:15:04;10.23;;;4.30;;
20713;SDS011;10518;50.742;4.226;2024-01-10T04:17:30;7.20;;;3.93;;
20713;SDS011;10518;50.742;4.226;2024-01-10T04:19:56;6.80;;;3.03;;
20713;SDS011;10518;50.742;4.226;2024-01-10T04:22:23;12.77;;;4.67;;
20713;SDS011;10518;50.742;4.226;2024-01-10T04:24:49;8.60;;;4.10;;
20713;SDS011;10518;50.742;4.226;2024-01-10T04:27:15;8.63;;;4.40;;
20713;SDS011;10518;50.742;4.226;2024-01-10T04:29:41;9.07;;;4.10;;
20713;SDS011;10518;50.742;4.226;2024-01-10T04:32:06;10.30;;;4.47;;
20713;SDS011;10518;50.742;4.226;2024-01-10T04:34:32;9.93;;;4.50;;
20713;SDS011;10518;50.742;4.226;2024-01-10T04:36:58;9.67;;;4.63;;
20713;SDS011;10518;50.742;4.226;2024-01-10T04:39:23;9.23;;;4.60;;
20713;SDS011;10518;50.742;4.226;2024-01-10T04:41:49;11.10;;;5.40;;
20713;SDS011;10518;50.742;4.226;2024-01-10T04:44:15;11.03;;;5.30;;
20713;SDS011;10518;50.742;4.226;2024-01-10T04:46:40;7.77;;;4.37;;
20713;SDS011;10518;50.742;4.226;2024-01-10T04:49:07;13.20;;;6.10;;
20713;SDS011;10518;50.742;4.226;2024-01-10T04:51:32;14.97;;;4.80;;
20713;SDS011;10518;50.742;4.226;2024-01-10T04:53:58;10.93;;;5.37;;
20713;SDS011;10518;50.742;4.226;2024-01-10T04:56:24;8.97;;;4.87;;
20713;SDS011;10518;50.742;4.226;2024-01-10T04:58:50;9.53;;;4.17;;
20713;SDS011;10518;50.742;4.226;2024-01-10T05:01:15;7.80;;;4.40;;
20713;SDS011;10518;50.742;4.226;2024-01-10T05:03:41;8.47;;;3.70;;
20713;SDS011;10518;50.742;4.226;2024-01-10T05:06:07;13.33;;;4.67;;
20713;SDS011;10518;50.742;4.226;2024-01-10T05:08:32;10.73;;;5.10;;
20713;SDS011;10518;50.742;4.226;2024-01-10T05:10:58;9.50;;;4.50;;
20713;SDS011;10518;50.742;4.226;2024-01-10T05:13:24;9.57;;;4.43;;
20713;SDS011;10518;50.742;4.226;2024-01-10T05:15:49;8.10;;;4.33;;
20713;SDS011;10518;50.742;4.226;2024-01-10T05:18:15;6.87;;;4.07;;
20713;SDS011;10518;50.742;4.226;2024-01-10T05:20:41;10.97;;;4.50;;
20713;SDS011;10518;50.742;4.226;2024-01-10T05:23:07;8.80;;;4.20;;
20713;SDS011;10518;50.742;4.226;2024-01-10T05:25:33;12.67;;;4.70;;
20713;SDS011;10518;50.742;4.226;2024-01-10T05:27:59;13.77;;;5.17;;
20713;SDS011;10518;50.742;4.226;2024-01-10T05:30:24;14.73;;;5.30;;
20713;SDS011;10518;50.742;4.226;2024-01-10T05:32:50;11.03;;;5.17;;
20713;SDS011;10518;50.742;4.226;2024-01-10T05:35:16;11.80;;;5.50;;
20713;SDS011;10518;50.742;4.226;2024-01-10T05:37:41;6.93;;;4.03;;
20713;SDS011;10518;50.742;4.226;2024-01-10T05:40:07;13.57;;;5.33;;
20713;SDS011;10518;50.742;4.226;2024-01-10T05:42:33;14.67;;;4.63;;
20713;SDS011;10518;50.742;4.226;2024-01-10T05:44:59;10.80;;;4.57;;
20713;SDS011;10518;50.742;4.226;2024-01-10T05:47:27;9.00;;;4.47;;
20713;SDS011;10518;50.742;4.226;2024-01-10T05:49:53;10.80;;;5.33;;
20713;SDS011;10518;50.742;4.226;2024-01-10T05:52:19;9.30;;;5.03;;
20713;SDS011;10518;50.742;4.226;2024-01-10T05:54:45;9.83;;;5.47;;
20713;SDS011;10518;50.742;4.226;2024-01-10T05:57:10;9.20;;;4.40;;
20713;SDS011;10518;50.742;4.226;2024-01-10T05:59:36;10.33;;;4.90;;
20713;SDS011;10518;50.742;4.226;2024-01-10T06:02:02;11.70;;;4.43;;
20713;SDS011;10518;50.742;4.226;2024-01-10T06:04:28;10.73;;;4.90;;
20713;SDS011;10518;50.742;4.226;2024-01-10T06:06:57;10.77;;;4.83;;
20713;SDS011;10518;50.742;4.226;2024-01-10T06:09:23;10.70;;;4.70;;
20713;SDS011;10518;50.742;4.226;2024-01-10T06:11:49;13.57;;;4.97;;
20713;SDS011;10518;50.742;4.226;2024-01-10T06:14:15;6.83;;;4.27;;
20713;SDS011;10518;50.742;4.226;2024-01-10T06:16:41;12.07;;;6.20;;
20713;SDS011;10518;50.742;4.226;2024-01-10T06:19:06;11.37;;;5.17;;
20713;SDS011;10518;50.742;4.226;2024-01-10T06:21:32;12.90;;;4.90;;
20713;SDS011;10518;50.742;4.226;2024-01-10T06:23:57;9.70;;;4.90;;
20713;SDS011;10518;50.742;4.226;2024-01-10T06:26:23;9.70;;;4.83;;
20713;SDS011;10518;50.742;4.226;2024-01-10T06:28:48;11.60;;;5.37;;
20713;SDS011;10518;50.742;4.226;2024-01-10T06:31:14;9.00;;;4.37;;
20713;SDS011;10518;50.742;4.226;2024-01-10T06:33:40;11.00;;;4.90;;
20713;SDS011;10518;50.742;4.226;2024-01-10T06:36:05;9.43;;;4.80;;
20713;SDS011;10518;50.742;4.226;2024-01-10T06:38:31;9.77;;;4.70;;
20713;SDS011;10518;50.742;4.226;2024-01-10T06:40:56;11.30;;;5.73;;
20713;SDS011;10518;50.742;4.226;2024-01-10T06:43:22;8.97;;;4.60;;
20713;SDS011;10518;50.742;4.226;2024-01-10T06:45:48;13.03;;;4.97;;
20713;SDS011;10518;50.742;4.226;2024-01-10T06:48:14;9.30;;;5.00;;
20713;SDS011;10518;50.742;4.226;2024-01-10T06:50:40;13.67;;;5.40;;
20713;SDS011;10518;50.742;4.226;2024-01-10T06:53:05;9.43;;;4.83;;
20713;SDS011;10518;50.742;4.226;2024-01-10T06:55:31;8.97;;;5.10;;
20713;SDS011;10518;50.742;4.226;2024-01-10T06:57:57;11.83;;;4.70;;
20713;SDS011;10518;50.742;4.226;2024-01-10T07:00:22;13.77;;;5.90;;
20713;SDS011;10518;50.742;4.226;2024-01-10T07:02:48;11.93;;;5.20;;
20713;SDS011;10518;50.742;4.226;2024-01-10T07:05:14;12.77;;;5.40;;
20713;SDS011;10518;50.742;4.226;2024-01-10T07:07:41;9.20;;;5.17;;
20713;SDS011;10518;50.742;4.226;2024-01-10T07:10:07;12.13;;;5.00;;
20713;SDS011;10518;50.742;4.226;2024-01-10T07:12:33;16.30;;;4.73;;
20713;SDS011;10518;50.742;4.226;2024-01-10T07:14:59;14.47;;;5.90;;
20713;SDS011;10518;50.742;4.226;2024-01-10T07:17:26;12.37;;;5.87;;
20713;SDS011;10518;50.742;4.226;2024-01-10T07:19:52;12.50;;;5.60;;
20713;SDS011;10518;50.742;4.226;2024-01-10T07:22:18;9.40;;;5.07;;
20713;SDS011;10518;50.742;4.226;2024-01-10T07:24:43;10.73;;;5.37;;
20713;SDS011;10518;50.742;4.226;2024-01-10T07:27:09;11.03;;;5.43;;
20713;SDS011;10518;50.742;4.226;2024-01-10T07:29:35;11.30;;;4.53;;
20713;SDS011;10518;50.742;4.226;2024-01-10T07:32:00;12.27;;;5.27;;
20713;SDS011;10518;50.742;4.226;2024-01-10T07:34:26;13.37;;;5.33;;
20713;SDS011;10518;50.742;4.226;2024-01-10T07:36:52;6.27;;;3.63;;
20713;SDS011;10518;50.742;4.226;2024-01-10T07:39:19;11.00;;;5.37;;
20713;SDS011;10518;50.742;4.226;2024-01-10T07:41:44;13.83;;;5.17;;
20713;SDS011;10518;50.742;4.226;2024-01-10T07:44:10;15.83;;;5.93;;
20713;SDS011;10518;50.742;4.226;2024-01-10T07:46:37;20.77;;;5.20;;
20713;SDS011;10518;50.742;4.226;2024-01-10T07:49:03;17.27;;;6.10;;
20713;SDS011;10518;50.742;4.226;2024-01-10T07:51:30;20.13;;;5.30;;
20713;SDS011;10518;50.742;4.226;2024-01-10T07:53:55;13.37;;;5.07;;
20713;SDS011;10518;50.742;4.226;2024-01-10T07:56:21;14.13;;;5.00;;
20713;SDS011;10518;50.742;4.226;2024-01-10T07:58:47;14.43;;;4.97;;
20713;SDS011;10518;50.742;4.226;2024-01-10T08:01:14;9.43;;;5.07;;
20713;SDS011;10518;50.742;4.226;2024-01-10T08:03:41;10.17;;;5.17;;
20713;SDS011;10518;50.742;4.226;2024-01-10T08:06:07;13.47;;;5.60;;
20713;SDS011;10518;50.742;4.226;2024-01-10T08:08:32;11.70;;;5.63;;
20713;SDS011;10518;50.742;4.226;2024-01-10T08:10:58;14.87;;;5.43;;
20713;SDS011;10518;50.742;4.226;2024-01-10T08:13:24;9.47;;;5.23;;
20713;SDS011;10518;50.742;4.226;2024-01-10T08:15:49;14.67;;;7.07;;
20713;SDS011;10518;50.742;4.226;2024-01-10T08:18:16;12.23;;;5.90;;
20713;SDS011;10518;50.742;4.226;2024-01-10T08:20:41;11.23;;;5.50;;
20713;SDS011;10518;50.742;4.226;2024-01-10T08:23:07;18.67;;;7.13;;
20713;SDS011;10518;50.742;4.226;2024-01-10T08:25:33;12.20;;;5.77;;
20713;SDS011;10518;50.742;4.226;2024-01-10T08:27:58;15.37;;;5.53;;
20713;SDS011;10518;50.742;4.226;2024-01-10T08:30:24;10.60;;;5.47;;
20713;SDS011;10518;50.742;4.226;2024-01-10T08:32:50;12.93;;;5.70;;
20713;SDS011;10518;50.742;4.226;2024-01-10T08:35:17;9.90;;;5.93;;
20713;SDS011;10518;50.742;4.226;2024-01-10T08:37:44;9.70;;;4.97;;
20713;SDS011;10518;50.742;4.226;2024-01-10T08:40:11;13.33;;;5.87;;
20713;SDS011;10518;50.742;4.226;2024-01-10T08:42:39;14.60;;;6.40;;
20713;SDS011;10518;50.742;4.226;2024-01-10T08:45:06;12.13;;;6.00;;
20713;SDS011;10518;50.742;4.226;2024-01-10T08:47:34;17.13;;;7.17;;
20713;SDS011;10518;50.742;4.226;2024-01-10T08:50:01;18.07;;;6.07;;
20713;SDS011;10518;50.742;4.226;2024-01-10T08:52:30;15.47;;;7.23;;
20713;SDS011;10518;50.742;4.226;2024-01-10T08:54:56;20.20;;;8.00;;
20713;SDS011;10518;50.742;4.226;2024-01-10T08:57:22;21.90;;;6.97;;
20713;SDS011;10518;50.742;4.226;2024-01-10T08:59:47;11.97;;;6.00;;
20713;SDS011;10518;50.742;4.226;2024-01-10T09:02:13;11.07;;;4.90;;
20713;SDS011;10518;50.742;4.226;2024-01-10T09:04:39;12.40;;;5.03;;
20713;SDS011;10518;50.742;4.226;2024-01-10T09:07:05;11.67;;;5.77;;
20713;SDS011;10518;50.742;4.226;2024-01-10T09:09:32;13.80;;;4.73;;
20713;SDS011;10518;50.742;4.226;2024-01-10T09:11:58;10.13;;;5.13;;
20713;SDS011;10518;50.742;4.226;2024-01-10T09:14:25;17.90;;;5.43;;
20713;SDS011;10518;50.742;4.226;2024-01-10T09:16:50;11.80;;;5.60;;
20713;SDS011;10518;50.742;4.226;2024-01-10T09:19:17;11.70;;;5.07;;
20713;SDS011;10518;50.742;4.226;2024-01-10T09:21:42;10.30;;;4.60;;
20713;SDS011;10518;50.742;4.226;2024-01-10T09:24:08;16.33;;;5.63;;
20713;SDS011;10518;50.742;4.226;2024-01-10T09:26:36;11.73;;;5.70;;
20713;SDS011;10518;50.742;4.226;2024-01-10T09:29:01;11.93;;;5.40;;
20713;SDS011;10518;50.742;4.226;2024-01-10T09:31:27;12.10;;;5.83;;
20713;SDS011;10518;50.742;4.226;2024-01-10T09:33:53;9.67;;;5.37;;
20713;SDS011;10518;50.742;4.226;2024-01-10T09:36:18;13.23;;;5.93;;
20713;SDS011;10518;50.742;4.226;2024-01-10T09:38:44;12.23;;;5.60;;
20713;SDS011;10518;50.742;4.226;2024-01-10T09:41:10;13.00;;;5.60;;
20713;SDS011;10518;50.742;4.226;2024-01-10T09:43:38;13.70;;;5.40;;
20713;SDS011;10518;50.742;4.226;2024-01-10T09:46:04;11.80;;;5.50;;
20713;SDS011;10518;50.742;4.226;2024-01-10T09:48:32;10.37;;;4.63;;
20713;SDS011;10518;50.742;4.226;2024-01-10T09:50:58;9.73;;;5.00;;
20713;SDS011;10518;50.742;4.226;2024-01-10T09:53:25;15.17;;;5.60;;
20713;SDS011;10518;50.742;4.226;2024-01-10T09:55:56;14.80;;;5.37;;
20713;SDS011;10518;50.742;4.226;2024-01-10T09:58:24;12.13;;;5.73;;
20713;SDS011;10518;50.742;4.226;2024-01-10T10:00:50;13.83;;;6.53;;
20713;SDS011;10518;50.742;4.226;2024-01-10T10:03:17;10.87;;;5.20;;
20713;SDS011;10518;50.742;4.226;2024-01-10T10:05:44;14.93;;;6.17;;
20713;SDS011;10518;50.742;4.226;2024-01-10T10:08:10;13.10;;;5.80;;
20713;SDS011;10518;50.742;4.226;2024-01-10T10:10:38;12.40;;;5.37;;
20713;SDS011;10518;50.742;4.226;2024-01-10T10:13:09;15.60;;;5.70;;
20713;SDS011;10518;50.742;4.226;2024-01-10T10:15:40;12.47;;;5.50;;
20713;SDS011;10518;50.742;4.226;2024-01-10T10:18:05;13.17;;;5.77;;
20713;SDS011;10518;50.742;4.226;2024-01-10T10:20:31;16.63;;;5.67;;
20713;SDS011;10518;50.742;4.226;2024-01-10T10:23:04;16.87;;;6.63;;
20713;SDS011;10518;50.742;4.226;2024-01-10T10:25:35;14.13;;;6.00;;
20713;SDS011;10518;50.742;4.226;2024-01-10T10:28:03;11.50;;;6.00;;
20713;SDS011;10518;50.742;4.226;2024-01-10T10:30:32;15.43;;;5.37;;
20713;SDS011;10518;50.742;4.226;2024-01-10T10:32:58;17.83;;;5.73;;
20713;SDS011;10518;50.742;4.226;2024-01-10T10:35:24;12.17;;;5.47;;
20713;SDS011;10518;50.742;4.226;2024-01-10T10:37:51;15.07;;;5.80;;
20713;SDS011;10518;50.742;4.226;2024-01-10T10:40:17;22.17;;;5.70;;
20713;SDS011;10518;50.742;4.226;2024-01-10T10:42:45;11.67;;;5.53;;
20713;SDS011;10518;50.742;4.226;2024-01-10T10:45:16;14.70;;;6.53;;
20713;SDS011;10518;50.742;4.226;2024-01-10T10:47:43;18.63;;;6.23;;
20713;SDS011;10518;50.742;4.226;2024-01-10T10:50:13;22.50;;;8.37;;
20713;SDS011;10518;50.742;4.226;2024-01-10T10:52:46;44.17;;;12.83;;
20713;SDS011;10518;50.742;4.226;2024-01-10T10:55:14;15.10;;;5.50;;
20713;SDS011;10518;50.742;4.226;2024-01-10T10:57:42;20.07;;;7.60;;
20713;SDS011;10518;50.742;4.226;2024-01-10T11:00:19;12.80;;;5.00;;
20713;SDS011;10518;50.742;4.226;2024-01-10T11:02:46;16.67;;;6.40;;
20713;SDS011;10518;50.742;4.226;2024-01-10T11:05:12;16.37;;;6.40;;
20713;SDS011;10518;50.742;4.226;2024-01-10T11:07:39;21.50;;;9.87;;
20713;SDS011;10518;50.742;4.226;2024-01-10T11:10:08;17.87;;;7.13;;
20713;SDS011;10518;50.742;4.226;2024-01-10T11:15:19;19.03;;;7.17;;
20713;SDS011;10518;50.742;4.226;2024-01-10T11:26:02;13.07;;;5.57;;
20713;SDS011;10518;50.742;4.226;2024-01-10T11:28:30;19.23;;;6.27;;
20713;SDS011;10518;50.742;4.226;2024-01-10T11:30:56;14.73;;;6.13;;
20713;SDS011;10518;50.742;4.226;2024-01-10T11:33:33;17.53;;;6.17;;
20713;SDS011;10518;50.742;4.226;2024-01-10T11:41:14;15.47;;;6.37;;
20713;SDS011;10518;50.742;4.226;2024-01-10T11:43:45;17.10;;;6.20;;
20713;SDS011;10518;50.742;4.226;2024-01-10T11:46:12;14.30;;;5.80;;
20713;SDS011;10518;50.742;4.226;2024-01-10T11:48:37;12.63;;;5.13;;
20713;SDS011;10518;50.742;4.226;2024-01-10T11:51:04;13.73;;;6.60;;
20713;SDS011;10518;50.742;4.226;2024-01-10T11:53:42;17.63;;;6.50;;
20713;SDS011;10518;50.742;4.226;2024-01-10T11:56:12;13.87;;;6.37;;
20713;SDS011;10518;50.742;4.226;2024-01-10T11:58:53;12.23;;;5.97;;
20713;SDS011;10518;50.742;4.226;2024-01-10T12:01:33;14.87;;;5.33;;
20713;SDS011;10518;50.742;4.226;2024-01-10T12:04:00;13.20;;;6.37;;
20713;SDS011;10518;50.742;4.226;2024-01-10T12:06:28;14.60;;;5.60;;
20713;SDS011;10518;50.742;4.226;2024-01-10T12:08:54;13.00;;;5.47;;
20713;SDS011;10518;50.742;4.226;2024-01-10T12:11:20;16.63;;;6.33;;
20713;SDS011;10518;50.742;4.226;2024-01-10T12:13:46;16.40;;;6.33;;
20713;SDS011;10518;50.742;4.226;2024-01-10T12:16:12;20.43;;;6.90;;
20713;SDS011;10518;50.742;4.226;2024-01-10T12:18:42;17.57;;;6.43;;
20713;SDS011;10518;50.742;4.226;2024-01-10T12:21:08;15.87;;;5.93;;
20713;SDS011;10518;50.742;4.226;2024-01-10T12:23:35;14.23;;;5.93;;
20713;SDS011;10518;50.742;4.226;2024-01-10T12:26:02;16.40;;;6.27;;
20713;SDS011;10518;50.742;4.226;2024-01-10T12:28:29;14.73;;;6.33;;
20713;SDS011;10518;50.742;4.226;2024-01-10T12:30:55;18.10;;;7.03;;
20713;SDS011;10518;50.742;4.226;2024-01-10T12:33:22;15.37;;;6.37;;
20713;SDS011;10518;50.742;4.226;2024-01-10T12:38:33;16.17;;;6.33;;
20713;SDS011;10518;50.742;4.226;2024-01-10T12:40:59;12.57;;;5.70;;
20713;SDS011;10518;50.742;4.226;2024-01-10T12:43:25;19.40;;;7.97;;
20713;SDS011;10518;50.742;4.226;2024-01-10T12:46:06;14.87;;;6.27;;
20713;SDS011;10518;50.742;4.226;2024-01-10T12:48:37;20.73;;;7.47;;
20713;SDS011;10518;50.742;4.226;2024-01-10T12:51:06;16.43;;;6.20;;
20713;SDS011;10518;50.742;4.226;2024-01-10T12:53:36;14.93;;;6.10;;
20713;SDS011;10518;50.742;4.226;2024-01-10T12:56:07;15.87;;;6.60;;
20713;SDS011;10518;50.742;4.226;2024-01-10T12:58:34;16.80;;;7.00;;
20713;SDS011;10518;50.742;4.226;2024-01-10T13:01:02;12.63;;;6.07;;
20713;SDS011;10518;50.742;4.226;2024-01-10T13:03:31;13.60;;;5.47;;
20713;SDS011;10518;50.742;4.226;2024-01-10T13:05:58;13.13;;;5.80;;
20713;SDS011;10518;50.742;4.226;2024-01-10T13:08:23;16.50;;;7.00;;
20713;SDS011;10518;50.742;4.226;2024-01-10T13:10:49;16.57;;;7.00;;
20713;SDS011;10518;50.742;4.226;2024-01-10T13:13:15;15.67;;;7.37;;
20713;SDS011;10518;50.742;4.226;2024-01-10T13:15:42;17.70;;;7.40;;
20713;SDS011;10518;50.742;4.226;2024-01-10T13:18:08;21.27;;;7.57;;
20713;SDS011;10518;50.742;4.226;2024-01-10T13:20:35;22.07;;;7.60;;
20713;SDS011;10518;50.742;4.226;2024-01-10T13:23:01;17.10;;;6.97;;
20713;SDS011;10518;50.742;4.226;2024-01-10T13:25:27;18.33;;;7.57;;
20713;SDS011;10518;50.742;4.226;2024-01-10T13:27:52;22.83;;;7.73;;
20713;SDS011;10518;50.742;4.226;2024-01-10T13:30:18;37.60;;;14.43;;
20713;SDS011;10518;50.742;4.226;2024-01-10T13:32:44;44.37;;;15.83;;
20713;SDS011;10518;50.742;4.226;2024-01-10T13:35:12;20.37;;;8.50;;
20713;SDS011;10518;50.742;4.226;2024-01-10T13:37:41;32.70;;;10.97;;
20713;SDS011;10518;50.742;4.226;2024-01-10T13:40:08;20.17;;;8.43;;
20713;SDS011;10518;50.742;4.226;2024-01-10T13:42:35;16.07;;;6.73;;
20713;SDS011;10518;50.742;4.226;2024-01-10T13:45:03;16.90;;;6.77;;
20713;SDS011;10518;50.742;4.226;2024-01-10T13:47:32;17.20;;;6.80;;
20713;SDS011;10518;50.742;4.226;2024-01-10T13:49:59;18.00;;;6.87;;
20713;SDS011;10518;50.742;4.226;2024-01-10T13:52:25;18.13;;;6.97;;
20713;SDS011;10518;50.742;4.226;2024-01-10T13:54:50;19.40;;;7.93;;
20713;SDS011;10518;50.742;4.226;2024-01-10T13:57:16;14.67;;;6.23;;
20713;SDS011;10518;50.742;4.226;2024-01-10T13:59:42;18.27;;;7.80;;
20713;SDS011;10518;50.742;4.226;2024-01-10T14:02:08;15.67;;;6.87;;
20713;SDS011;10518;50.742;4.226;2024-01-10T14:04:35;20.90;;;8.53;;
20713;SDS011;10518;50.742;4.226;2024-01-10T14:07:00;17.13;;;7.77;;
20713;SDS011;10518;50.742;4.226;2024-01-10T14:09:26;16.60;;;5.57;;
20713;SDS011;10518;50.742;4.226;2024-01-10T14:11:52;17.33;;;7.10;;
20713;SDS011;10518;50.742;4.226;2024-01-10T14:14:17;19.00;;;7.60;;
20713;SDS011;10518;50.742;4.226;2024-01-10T14:16:43;19.17;;;7.80;;
20713;SDS011;10518;50.742;4.226;2024-01-10T14:19:09;17.87;;;7.30;;
20713;SDS011;10518;50.742;4.226;2024-01-10T14:21:34;17.10;;;8.13;;
20713;SDS011;10518;50.742;4.226;2024-01-10T14:24:00;22.27;;;8.53;;
20713;SDS011;10518;50.742;4.226;2024-01-10T14:26:26;16.90;;;7.67;;
20713;SDS011;10518;50.742;4.226;2024-01-10T14:28:52;17.23;;;8.03;;
20713;SDS011;10518;50.742;4.226;2024-01-10T14:31:20;20.87;;;8.23;;
20713;SDS011;10518;50.742;4.226;2024-01-10T14:33:46;25.00;;;8.40;;
20713;SDS011;10518;50.742;4.226;2024-01-10T14:36:12;17.07;;;7.17;;
20713;SDS011;10518;50.742;4.226;2024-01-10T14:38:38;19.00;;;7.77;;
20713;SDS011;10518;50.742;4.226;2024-01-10T14:41:04;17.63;;;7.63;;
20713;SDS011;10518;50.742;4.226;2024-01-10T14:43:31;18.83;;;8.00;;
20713;SDS011;10518;50.742;4.226;2024-01-10T14:45:57;16.37;;;7.77;;
20713;SDS011;10518;50.742;4.226;2024-01-10T14:48:23;17.30;;;7.30;;
20713;SDS011;10518;50.742;4.226;2024-01-10T14:50:49;22.13;;;8.03;;
20713;SDS011;10518;50.742;4.226;2024-01-10T14:53:14;19.23;;;8.10;;